sensor_id;sensor_type;location;lat;lon;timestamp;pressure;altitude;pressure_sealevel;temperature;humidity
59513;BME280;45330;51.634;5.562;2023-11-21T00:00:33;100964.94;;;5.57;100.00
59513;BME280;45330;51.634;5.562;2023-11-21T00:02:59;101010.91;;;5.79;100.00
59513;BME280;45330;51.634;5.562;2023-11-21T00:05:24;101012.66;;;5.80;100.00
59513;BME280;45330;51.634;5.562;2023-11-21T00:07:49;100987.41;;;5.62;100.00
59513;BME280;45330;51.634;5.562;2023-11-21T00:10:16;100989.97;;;5.61;100.00
59513;BME280;45330;51.634;5.562;2023-11-21T00:12:42;100988.88;;;5.48;100.00
59513;BME280;45330;51.634;5.562;2023-11-21T00:15:08;101022.69;;;5.63;100.00
59513;BME280;45330;51.634;5.562;2023-11-21T00:17:37;101028.66;;;5.59;100.00
59513;BME280;45330;51.634;5.562;2023-11-21T00:20:03;101014.66;;;5.45;100.00
59513;BME280;45330;51.634;5.562;2023-11-21T00:22:32;101025.81;;;5.45;100.00
59513;BME280;45330;51.634;5.562;2023-11-21T00:24:57;101012.81;;;5.38;100.00
59513;BME280;45330;51.634;5.562;2023-11-21T00:27:23;101009.16;;;5.26;100.00
59513;BME280;45330;51.634;5.562;2023-11-21T00:29:48;101019.50;;;5.28;100.00
59513;BME280;45330;51.634;5.562;2023-11-21T00:32:13;101029.75;;;5.23;100.00
59513;BME280;45330;51.634;5.562;2023-11-21T00:34:39;101020.09;;;5.14;100.00
59513;BME280;45330;51.634;5.562;2023-11-21T00:37:05;100995.63;;;4.92;100.00
59513;BME280;45330;51.634;5.562;2023-11-21T00:39:30;101013.78;;;4.98;100.00
59513;BME280;45330;51.634;5.562;2023-11-21T00:41:55;101022.31;;;4.94;100.00
59513;BME280;45330;51.634;5.562;2023-11-21T00:44:21;101022.25;;;4.91;100.00
59513;BME280;45330;51.634;5.562;2023-11-21T00:46:46;101028.22;;;4.89;100.00
59513;BME280;45330;51.634;5.562;2023-11-21T00:49:12;101007.28;;;4.73;100.00
59513;BME280;45330;51.634;5.562;2023-11-21T00:51:38;101015.88;;;4.74;100.00
59513;BME280;45330;51.634;5.562;2023-11-21T00:54:03;101019.16;;;4.67;100.00
59513;BME280;45330;51.634;5.562;2023-11-21T00:56:29;100995.66;;;4.53;100.00
59513;BME280;45330;51.634;5.562;2023-11-21T00:58:54;101042.41;;;4.70;100.00
59513;BME280;45330;51.634;5.562;2023-11-21T01:01:21;101038.06;;;4.66;100.00
59513;BME280;45330;51.634;5.562;2023-11-21T01:03:49;101030.91;;;4.54;100.00
59513;BME280;45330;51.634;5.562;2023-11-21T01:06:15;101047.38;;;4.59;100.00
59513;BME280;45330;51.634;5.562;2023-11-21T01:08:41;101048.16;;;4.56;100.00
59513;BME280;45330;51.634;5.562;2023-11-21T01:11:06;101043.72;;;4.49;100.00
59513;BME280;45330;51.634;5.562;2023-11-21T01:13:38;101049.75;;;4.51;100.00
59513;BME280;45330;51.634;5.562;2023-11-21T01:16:04;101029.56;;;4.32;100.00
59513;BME280;45330;51.634;5.562;2023-11-21T01:18:31;101053.84;;;4.41;100.00
59513;BME280;45330;51.634;5.562;2023-11-21T01:20:56;101054.56;;;4.36;100.00
59513;BME280;45330;51.634;5.562;2023-11-21T01:23:22;101084.00;;;4.45;100.00
59513;BME280;45330;51.634;5.562;2023-11-21T01:25:48;101045.91;;;4.32;100.00
59513;BME280;45330;51.634;5.562;2023-11-21T01:28:13;101070.34;;;4.50;100.00
59513;BME280;45330;51.634;5.562;2023-11-21T01:30:38;101073.69;;;4.45;100.00
59513;BME280;45330;51.634;5.562;2023-11-21T01:33:04;101078.84;;;4.45;100.00
59513;BME280;45330;51.634;5.562;2023-11-21T01:35:29;101089.03;;;4.41;100.00
59513;BME280;45330;51.634;5.562;2023-11-21T01:37:55;101094.19;;;4.41;100.00
59513;BME280;45330;51.634;5.562;2023-11-21T01:40:21;101084.66;;;4.37;100.00
59513;BME280;45330;51.634;5.562;2023-11-21T01:42:46;101066.28;;;4.23;100.00
59513;BME280;45330;51.634;5.562;2023-11-21T01:45:12;101082.03;;;4.35;100.00
59513;BME280;45330;51.634;5.562;2023-11-21T01:47:38;101096.84;;;4.44;100.00
59513;BME280;45330;51.634;5.562;2023-11-21T01:50:07;101091.84;;;4.50;100.00
59513;BME280;45330;51.634;5.562;2023-11-21T01:52:34;101076.28;;;4.47;100.00
59513;BME280;45330;51.634;5.562;2023-11-21T01:55:01;101085.97;;;4.56;100.00
59513;BME280;45330;51.634;5.562;2023-11-21T01:57:27;101088.47;;;4.54;100.00
59513;BME280;45330;51.634;5.562;2023-11-21T01:59:54;101085.91;;;4.54;100.00
59513;BME280;45330;51.634;5.562;2023-11-21T02:02:20;101068.53;;;4.45;100.00
59513;BME280;45330;51.634;5.562;2023-11-21T02:04:45;101079.22;;;4.62;100.00
59513;BME280;45330;51.634;5.562;2023-11-21T02:07:11;101081.78;;;4.62;100.00
59513;BME280;45330;51.634;5.562;2023-11-21T02:09:36;101101.91;;;4.79;100.00
59513;BME280;45330;51.634;5.562;2023-11-21T02:12:07;101102.03;;;4.85;100.00
59513;BME280;45330;51.634;5.562;2023-11-21T02:14:34;101083.84;;;4.77;100.00
59513;BME280;45330;51.634;5.562;2023-11-21T02:16:59;101112.66;;;4.99;100.00
59513;BME280;45330;51.634;5.562;2023-11-21T02:19:26;101086.75;;;4.93;100.00
59513;BME280;45330;51.634;5.562;2023-11-21T02:21:52;101100.72;;;5.04;100.00
59513;BME280;45330;51.634;5.562;2023-11-21T02:24:21;101085.16;;;4.98;100.00
59513;BME280;45330;51.634;5.562;2023-11-21T02:26:47;101120.00;;;5.22;100.00
59513;BME280;45330;51.634;5.562;2023-11-21T02:29:14;101088.84;;;5.11;100.00
59513;BME280;45330;51.634;5.562;2023-11-21T02:31:42;101122.69;;;5.26;100.00
59513;BME280;45330;51.634;5.562;2023-11-21T02:34:17;101120.19;;;5.31;100.00
59513;BME280;45330;51.634;5.562;2023-11-21T02:36:43;101081.22;;;5.17;100.00
59513;BME280;45330;51.634;5.562;2023-11-21T02:39:09;101110.66;;;5.28;100.00
59513;BME280;45330;51.634;5.562;2023-11-21T02:41:36;101079.47;;;5.16;100.00
59513;BME280;45330;51.634;5.562;2023-11-21T02:44:02;101115.97;;;5.35;100.00
59513;BME280;45330;51.634;5.562;2023-11-21T02:46:27;101096.91;;;5.28;100.00
59513;BME280;45330;51.634;5.562;2023-11-21T02:48:53;101123.03;;;5.45;100.00
59513;BME280;45330;51.634;5.562;2023-11-21T02:51:22;101097.78;;;5.30;100.00
59513;BME280;45330;51.634;5.562;2023-11-21T02:53:48;101094.34;;;5.29;100.00
59513;BME280;45330;51.634;5.562;2023-11-21T02:56:13;101121.28;;;5.44;100.00
59513;BME280;45330;51.634;5.562;2023-11-21T02:58:42;101059.53;;;5.09;100.00
59513;BME280;45330;51.634;5.562;2023-11-21T03:01:09;101128.31;;;5.51;100.00
59513;BME280;45330;51.634;5.562;2023-11-21T03:03:34;101124.94;;;5.54;100.00
59513;BME280;45330;51.634;5.562;2023-11-21T03:06:02;101100.53;;;5.38;100.00
59513;BME280;45330;51.634;5.562;2023-11-21T03:08:28;101118.00;;;5.51;100.00
59513;BME280;45330;51.634;5.562;2023-11-21T03:10:53;101130.09;;;5.54;100.00
59513;BME280;45330;51.634;5.562;2023-11-21T03:13:18;101110.13;;;5.43;100.00
59513;BME280;45330;51.634;5.562;2023-11-21T03:15:44;101117.06;;;5.47;100.00
59513;BME280;45330;51.634;5.562;2023-11-21T03:18:09;101106.50;;;5.35;100.00
59513;BME280;45330;51.634;5.562;2023-11-21T03:20:35;101141.31;;;5.54;100.00
59513;BME280;45330;51.634;5.562;2023-11-21T03:23:01;101113.56;;;5.44;100.00
59513;BME280;45330;51.634;5.562;2023-11-21T03:25:27;101137.84;;;5.55;100.00
59513;BME280;45330;51.634;5.562;2023-11-21T03:27:52;101135.28;;;5.55;100.00
59513;BME280;45330;51.634;5.562;2023-11-21T03:30:18;101133.56;;;5.54;100.00
59513;BME280;45330;51.634;5.562;2023-11-21T03:32:44;101136.91;;;5.50;100.00
59513;BME280;45330;51.634;5.562;2023-11-21T03:35:09;101141.22;;;5.51;100.00
59513;BME280;45330;51.634;5.562;2023-11-21T03:37:35;101103.88;;;5.32;100.00
59513;BME280;45330;51.634;5.562;2023-11-21T03:40:00;101128.22;;;5.45;100.00
59513;BME280;45330;51.634;5.562;2023-11-21T03:42:25;101146.31;;;5.48;100.00
59513;BME280;45330;51.634;5.562;2023-11-21T03:44:51;101143.66;;;5.43;100.00
59513;BME280;45330;51.634;5.562;2023-11-21T03:47:17;101154.00;;;5.43;100.00
59513;BME280;45330;51.634;5.562;2023-11-21T03:49:42;101127.03;;;5.29;100.00
59513;BME280;45330;51.634;5.562;2023-11-21T03:52:07;101109.47;;;5.11;100.00
59513;BME280;45330;51.634;5.562;2023-11-21T03:54:34;101147.75;;;5.32;100.00
59513;BME280;45330;51.634;5.562;2023-11-21T03:56:59;101139.91;;;5.27;100.00
59513;BME280;45330;51.634;5.562;2023-11-21T03:59:25;101149.38;;;5.28;100.00
59513;BME280;45330;51.634;5.562;2023-11-21T04:01:50;101141.47;;;5.19;100.00
59513;BME280;45330;51.634;5.562;2023-11-21T04:04:16;101162.28;;;5.28;100.00
59513;BME280;45330;51.634;5.562;2023-11-21T04:06:41;101174.41;;;5.32;100.00
59513;BME280;45330;51.634;5.562;2023-11-21T04:09:07;101168.31;;;5.29;100.00
59513;BME280;45330;51.634;5.562;2023-11-21T04:11:32;101168.31;;;5.27;100.00
59513;BME280;45330;51.634;5.562;2023-11-21T04:13:57;101139.47;;;5.07;100.00
59513;BME280;45330;51.634;5.562;2023-11-21T04:16:23;101177.59;;;5.19;100.00
59513;BME280;45330;51.634;5.562;2023-11-21T04:18:48;101154.91;;;5.04;100.00
59513;BME280;45330;51.634;5.562;2023-11-21T04:21:13;101179.97;;;5.11;100.00
59513;BME280;45330;51.634;5.562;2023-11-21T04:23:39;101185.94;;;5.09;100.00
59513;BME280;45330;51.634;5.562;2023-11-21T04:26:05;101183.13;;;4.96;100.00
59513;BME280;45330;51.634;5.562;2023-11-21T04:28:30;101196.06;;;5.00;100.00
59513;BME280;45330;51.634;5.562;2023-11-21T04:30:57;101168.22;;;4.85;100.00
59513;BME280;45330;51.634;5.562;2023-11-21T04:33:22;101201.31;;;5.04;100.00
59513;BME280;45330;51.634;5.562;2023-11-21T04:35:48;101180.44;;;4.93;100.00
59513;BME280;45330;51.634;5.562;2023-11-21T04:38:13;101181.34;;;4.94;100.00
59513;BME280;45330;51.634;5.562;2023-11-21T04:40:39;101214.31;;;5.09;100.00
59513;BME280;45330;51.634;5.562;2023-11-21T04:43:04;101188.38;;;5.01;100.00
59513;BME280;45330;51.634;5.562;2023-11-21T04:45:30;101190.94;;;5.01;100.00
59513;BME280;45330;51.634;5.562;2023-11-21T04:47:55;101220.53;;;5.17;100.00
59513;BME280;45330;51.634;5.562;2023-11-21T04:50:21;101212.72;;;5.14;100.00
59513;BME280;45330;51.634;5.562;2023-11-21T04:52:46;101223.16;;;5.20;100.00
59513;BME280;45330;51.634;5.562;2023-11-21T04:55:12;101229.25;;;5.22;100.00
59513;BME280;45330;51.634;5.562;2023-11-21T04:57:38;101200.56;;;5.08;100.00
59513;BME280;45330;51.634;5.562;2023-11-21T05:00:03;101232.72;;;5.24;100.00
59513;BME280;45330;51.634;5.562;2023-11-21T05:02:34;101223.16;;;5.20;100.00
59513;BME280;45330;51.634;5.562;2023-11-21T05:05:00;101215.28;;;5.14;100.00
59513;BME280;45330;51.634;5.562;2023-11-21T05:07:25;101229.88;;;5.12;100.00
59513;BME280;45330;51.634;5.562;2023-11-21T05:09:54;101236.88;;;5.18;100.00
59513;BME280;45330;51.634;5.562;2023-11-21T05:12:21;101237.75;;;5.18;100.00
59513;BME280;45330;51.634;5.562;2023-11-21T05:14:48;101226.56;;;5.18;100.00
59513;BME280;45330;51.634;5.562;2023-11-21T05:17:14;101255.34;;;5.36;100.00
59513;BME280;45330;51.634;5.562;2023-11-21T05:19:39;101249.38;;;5.39;100.00
59513;BME280;45330;51.634;5.562;2023-11-21T05:22:05;101241.56;;;5.36;100.00
59513;BME280;45330;51.634;5.562;2023-11-21T05:24:31;101247.63;;;5.38;100.00
59513;BME280;45330;51.634;5.562;2023-11-21T05:26:56;101225.84;;;5.23;100.00
59513;BME280;45330;51.634;5.562;2023-11-21T05:29:23;101241.44;;;5.29;100.00
59513;BME280;45330;51.634;5.562;2023-11-21T05:31:48;101255.28;;;5.33;100.00
59513;BME280;45330;51.634;5.562;2023-11-21T05:34:15;101256.13;;;5.32;100.00
59513;BME280;45330;51.634;5.562;2023-11-21T05:36:43;101233.34;;;5.14;100.00
59513;BME280;45330;51.634;5.562;2023-11-21T05:39:08;101256.91;;;5.29;100.00
59513;BME280;45330;51.634;5.562;2023-11-21T05:41:33;101246.34;;;5.19;100.00
59513;BME280;45330;51.634;5.562;2023-11-21T05:43:59;101270.72;;;5.31;100.00
59513;BME280;45330;51.634;5.562;2023-11-21T05:46:24;101274.28;;;5.37;100.00
59513;BME280;45330;51.634;5.562;2023-11-21T05:48:50;101273.34;;;5.33;100.00
59513;BME280;45330;51.634;5.562;2023-11-21T05:51:15;101277.69;;;5.36;100.00
59513;BME280;45330;51.634;5.562;2023-11-21T05:53:41;101275.03;;;5.32;100.00
59513;BME280;45330;51.634;5.562;2023-11-21T05:56:06;101289.88;;;5.43;100.00
59513;BME280;45330;51.634;5.562;2023-11-21T05:58:32;101297.69;;;5.44;100.00
59513;BME280;45330;51.634;5.562;2023-11-21T06:00:57;101281.97;;;5.33;100.00
59513;BME280;45330;51.634;5.562;2023-11-21T06:03:23;101299.50;;;5.48;100.00
59513;BME280;45330;51.634;5.562;2023-11-21T06:05:48;101295.13;;;5.46;100.00
59513;BME280;45330;51.634;5.562;2023-11-21T06:08:14;101298.66;;;5.51;100.00
59513;BME280;45330;51.634;5.562;2023-11-21T06:10:42;101297.75;;;5.47;100.00
59513;BME280;45330;51.634;5.562;2023-11-21T06:13:07;101282.06;;;5.40;100.00
59513;BME280;45330;51.634;5.562;2023-11-21T06:15:33;101282.13;;;5.41;100.00
59513;BME280;45330;51.634;5.562;2023-11-21T06:17:59;101283.06;;;5.45;100.00
59513;BME280;45330;51.634;5.562;2023-11-21T06:20:25;101311.72;;;5.57;100.00
59513;BME280;45330;51.634;5.562;2023-11-21T06:22:51;101288.25;;;5.46;100.00
59513;BME280;45330;51.634;5.562;2023-11-21T06:25:17;101289.13;;;5.47;100.00
59513;BME280;45330;51.634;5.562;2023-11-21T06:27:46;101290.88;;;5.48;100.00
59513;BME280;45330;51.634;5.562;2023-11-21T06:30:13;101321.31;;;5.63;100.00
59513;BME280;45330;51.634;5.562;2023-11-21T06:32:40;101330.88;;;5.67;100.00
59513;BME280;45330;51.634;5.562;2023-11-21T06:35:07;101322.19;;;5.63;100.00
59513;BME280;45330;51.634;5.562;2023-11-21T06:37:33;101317.78;;;5.59;100.00
59513;BME280;45330;51.634;5.562;2023-11-21T06:40:00;101336.16;;;5.73;100.00
59513;BME280;45330;51.634;5.562;2023-11-21T06:42:26;101322.28;;;5.68;100.00
59513;BME280;45330;51.634;5.562;2023-11-21T06:44:52;101301.44;;;5.59;100.00
59513;BME280;45330;51.634;5.562;2023-11-21T06:47:19;101317.09;;;5.68;100.00
59513;BME280;45330;51.634;5.562;2023-11-21T06:49:47;101305.81;;;5.61;100.00
59513;BME280;45330;51.634;5.562;2023-11-21T06:52:15;101323.28;;;5.75;100.00
59513;BME280;45330;51.634;5.562;2023-11-21T06:54:41;101335.47;;;5.80;100.00
59513;BME280;45330;51.634;5.562;2023-11-21T06:57:06;101324.91;;;5.70;100.00
59513;BME280;45330;51.634;5.562;2023-11-21T06:59:31;101344.16;;;5.84;100.00
59513;BME280;45330;51.634;5.562;2023-11-21T07:01:57;101330.16;;;5.73;100.00
59513;BME280;45330;51.634;5.562;2023-11-21T07:04:22;101354.53;;;5.87;100.00
59513;BME280;45330;51.634;5.562;2023-11-21T07:06:48;101332.81;;;5.77;100.00
59513;BME280;45330;51.634;5.562;2023-11-21T07:09:13;101365.75;;;5.89;100.00
59513;BME280;45330;51.634;5.562;2023-11-21T07:11:38;101359.84;;;5.95;100.00
59513;BME280;45330;51.634;5.562;2023-11-21T07:14:04;101369.38;;;5.96;100.00
59513;BME280;45330;51.634;5.562;2023-11-21T07:16:35;101342.41;;;5.83;100.00
59513;BME280;45330;51.634;5.562;2023-11-21T07:19:03;101382.47;;;6.02;100.00
59513;BME280;45330;51.634;5.562;2023-11-21T07:21:34;101384.19;;;6.03;100.00
59513;BME280;45330;51.634;5.562;2023-11-21T07:24:00;101356.31;;;5.90;100.00
59513;BME280;45330;51.634;5.562;2023-11-21T07:26:26;101348.56;;;5.88;100.00
59513;BME280;45330;51.634;5.562;2023-11-21T07:28:52;101373.88;;;6.05;100.00
59513;BME280;45330;51.634;5.562;2023-11-21T07:31:18;101388.69;;;6.12;100.00
59513;BME280;45330;51.634;5.562;2023-11-21T07:33:44;101386.16;;;6.15;100.00
59513;BME280;45330;51.634;5.562;2023-11-21T07:36:12;101388.69;;;6.12;100.00
59513;BME280;45330;51.634;5.562;2023-11-21T07:38:38;101380.03;;;6.10;100.00
59513;BME280;45330;51.634;5.562;2023-11-21T07:41:03;101403.59;;;6.25;100.00
59513;BME280;45330;51.634;5.562;2023-11-21T07:43:28;101411.44;;;6.30;100.00
59513;BME280;45330;51.634;5.562;2023-11-21T07:46:00;101411.44;;;6.30;100.00
59513;BME280;45330;51.634;5.562;2023-11-21T07:48:28;101420.13;;;6.33;100.00
59513;BME280;45330;51.634;5.562;2023-11-21T07:50:53;101412.31;;;6.30;100.00
59513;BME280;45330;51.634;5.562;2023-11-21T07:53:18;101418.34;;;6.31;100.00
59513;BME280;45330;51.634;5.562;2023-11-21T07:55:44;101426.25;;;6.37;100.00
59513;BME280;45330;51.634;5.562;2023-11-21T07:58:10;101404.53;;;6.29;100.00
59513;BME280;45330;51.634;5.562;2023-11-21T08:00:38;101422.94;;;6.43;100.00
59513;BME280;45330;51.634;5.562;2023-11-21T08:03:04;101369.72;;;6.11;100.00
59513;BME280;45330;51.634;5.562;2023-11-21T08:05:31;101421.34;;;6.51;100.00
59513;BME280;45330;51.634;5.562;2023-11-21T08:07:56;101428.44;;;6.60;100.00
59513;BME280;45330;51.634;5.562;2023-11-21T08:10:21;101433.69;;;6.64;100.00
59513;BME280;45330;51.634;5.562;2023-11-21T08:12:47;101437.16;;;6.66;100.00
59513;BME280;45330;51.634;5.562;2023-11-21T08:15:13;101440.69;;;6.70;100.00
59513;BME280;45330;51.634;5.562;2023-11-21T08:17:39;101421.56;;;6.62;100.00
59513;BME280;45330;51.634;5.562;2023-11-21T08:20:05;101442.56;;;6.79;100.00
59513;BME280;45330;51.634;5.562;2023-11-21T08:22:31;101425.94;;;6.66;100.00
59513;BME280;45330;51.634;5.562;2023-11-21T08:24:57;101449.53;;;6.81;100.00
59513;BME280;45330;51.634;5.562;2023-11-21T08:27:23;101435.50;;;6.68;100.00
59513;BME280;45330;51.634;5.562;2023-11-21T08:29:48;101455.56;;;6.82;100.00
59513;BME280;45330;51.634;5.562;2023-11-21T08:32:14;101463.34;;;6.83;100.00
59513;BME280;45330;51.634;5.562;2023-11-21T08:34:40;101440.63;;;6.67;100.00
59513;BME280;45330;51.634;5.562;2023-11-21T08:37:08;101451.13;;;6.75;100.00
59513;BME280;45330;51.634;5.562;2023-11-21T08:39:33;101461.50;;;6.78;100.00
59513;BME280;45330;51.634;5.562;2023-11-21T08:41:58;101466.66;;;6.76;100.00
59513;BME280;45330;51.634;5.562;2023-11-21T08:44:24;101483.28;;;6.89;100.00
59513;BME280;45330;51.634;5.562;2023-11-21T08:46:50;101474.53;;;6.81;100.00
59513;BME280;45330;51.634;5.562;2023-11-21T08:49:15;101491.22;;;6.97;100.00
59513;BME280;45330;51.634;5.562;2023-11-21T08:51:41;101483.38;;;6.92;100.00
59513;BME280;45330;51.634;5.562;2023-11-21T08:54:06;101491.34;;;7.04;100.00
59513;BME280;45330;51.634;5.562;2023-11-21T08:56:34;101476.53;;;6.96;100.00
59513;BME280;45330;51.634;5.562;2023-11-21T08:59:00;101497.63;;;7.16;100.00
59513;BME280;45330;51.634;5.562;2023-11-21T09:01:31;101495.19;;;7.25;100.00
59513;BME280;45330;51.634;5.562;2023-11-21T09:03:57;101469.16;;;7.16;100.00
59513;BME280;45330;51.634;5.562;2023-11-21T09:06:23;101495.47;;;7.41;100.00
59513;BME280;45330;51.634;5.562;2023-11-21T09:08:49;101504.19;;;7.46;100.00
59513;BME280;45330;51.634;5.562;2023-11-21T09:11:14;101470.47;;;7.43;100.00
59513;BME280;45330;51.634;5.562;2023-11-21T09:13:40;101497.72;;;7.72;100.00
59513;BME280;45330;51.634;5.562;2023-11-21T09:16:05;101487.41;;;7.76;100.00
59513;BME280;45330;51.634;5.562;2023-11-21T09:18:31;101517.19;;;8.02;100.00
59513;BME280;45330;51.634;5.562;2023-11-21T09:20:56;101476.25;;;7.80;100.00
59513;BME280;45330;51.634;5.562;2023-11-21T09:23:22;101493.72;;;7.93;100.00
59513;BME280;45330;51.634;5.562;2023-11-21T09:25:47;101498.88;;;7.92;100.00
59513;BME280;45330;51.634;5.562;2023-11-21T09:28:15;101525.91;;;8.07;100.00
59513;BME280;45330;51.634;5.562;2023-11-21T09:30:41;101501.56;;;7.96;100.00
59513;BME280;45330;51.634;5.562;2023-11-21T09:33:06;101518.25;;;8.15;100.00
59513;BME280;45330;51.634;5.562;2023-11-21T09:35:32;101520.84;;;8.17;100.00
59513;BME280;45330;51.634;5.562;2023-11-21T09:37:57;101505.19;;;8.09;100.00
59513;BME280;45330;51.634;5.562;2023-11-21T09:40:23;101510.38;;;8.09;100.00
59513;BME280;45330;51.634;5.562;2023-11-21T09:42:56;101525.13;;;8.13;100.00
59513;BME280;45330;51.634;5.562;2023-11-21T09:45:26;101540.78;;;8.21;100.00
59513;BME280;45330;51.634;5.562;2023-11-21T09:47:57;101555.50;;;8.22;100.00
59513;BME280;45330;51.634;5.562;2023-11-21T09:50:23;101560.66;;;8.19;100.00
59513;BME280;45330;51.634;5.562;2023-11-21T09:53:16;101563.28;;;8.22;100.00
59513;BME280;45330;51.634;5.562;2023-11-21T09:55:46;101547.50;;;8.08;100.00
59513;BME280;45330;51.634;5.562;2023-11-21T09:58:13;101533.66;;;8.04;100.00
59513;BME280;45330;51.634;5.562;2023-11-21T10:00:43;101570.09;;;8.17;100.00
59513;BME280;45330;51.634;5.562;2023-11-21T10:03:10;101568.28;;;8.11;100.00
59513;BME280;45330;51.634;5.562;2023-11-21T10:05:36;101562.19;;;8.07;100.00
59513;BME280;45330;51.634;5.562;2023-11-21T10:08:04;101568.31;;;8.13;100.00
59513;BME280;45330;51.634;5.562;2023-11-21T10:10:32;101582.19;;;8.15;100.00
59513;BME280;45330;51.634;5.562;2023-11-21T10:13:01;101569.25;;;8.16;100.00
59513;BME280;45330;51.634;5.562;2023-11-21T10:15:29;101567.50;;;8.17;100.00
59513;BME280;45330;51.634;5.562;2023-11-21T10:17:55;101560.50;;;8.10;100.00
59513;BME280;45330;51.634;5.562;2023-11-21T10:20:23;101591.03;;;8.28;100.00
59513;BME280;45330;51.634;5.562;2023-11-21T10:22:50;101572.66;;;8.14;100.00
59513;BME280;45330;51.634;5.562;2023-11-21T10:25:15;101599.59;;;8.22;100.00
59513;BME280;45330;51.634;5.562;2023-11-21T10:27:41;101578.59;;;8.06;100.00
59513;BME280;45330;51.634;5.562;2023-11-21T10:30:09;101601.16;;;8.14;100.00
59513;BME280;45330;51.634;5.562;2023-11-21T10:32:38;101582.78;;;7.98;100.00
59513;BME280;45330;51.634;5.562;2023-11-21T10:35:04;101595.97;;;8.12;100.00
59513;BME280;45330;51.634;5.562;2023-11-21T10:37:39;101608.28;;;8.26;100.00
59513;BME280;45330;51.634;5.562;2023-11-21T10:40:09;101587.41;;;8.18;100.00
59513;BME280;45330;51.634;5.562;2023-11-21T10:42:41;101611.97;;;8.40;100.00
59513;BME280;45330;51.634;5.562;2023-11-21T10:45:09;101607.78;;;8.47;100.00
59513;BME280;45330;51.634;5.562;2023-11-21T10:47:43;101609.66;;;8.57;100.00
59513;BME280;45330;51.634;5.562;2023-11-21T10:50:09;101591.56;;;8.63;100.00
59513;BME280;45330;51.634;5.562;2023-11-21T10:52:42;101557.00;;;8.64;100.00
59513;BME280;45330;51.634;5.562;2023-11-21T10:55:19;101584.97;;;8.88;100.00
59513;BME280;45330;51.634;5.562;2023-11-21T10:57:53;101592.31;;;9.22;100.00
59513;BME280;45330;51.634;5.562;2023-11-21T11:00:19;101617.75;;;9.51;100.00
59513;BME280;45330;51.634;5.562;2023-11-21T11:02:51;101606.47;;;9.49;100.00
59513;BME280;45330;51.634;5.562;2023-11-21T11:05:19;101616.03;;;9.51;100.00
59513;BME280;45330;51.634;5.562;2023-11-21T11:07:48;101607.06;;;9.23;100.00
59513;BME280;45330;51.634;5.562;2023-11-21T11:10:13;101622.53;;;9.17;100.00
59513;BME280;45330;51.634;5.562;2023-11-21T11:12:40;101589.34;;;8.89;100.00
59513;BME280;45330;51.634;5.562;2023-11-21T11:15:07;101603.16;;;8.90;100.00
59513;BME280;45330;51.634;5.562;2023-11-21T11:17:36;101617.84;;;8.86;100.00
59513;BME280;45330;51.634;5.562;2023-11-21T11:20:04;101637.88;;;8.98;100.00
59513;BME280;45330;51.634;5.562;2023-11-21T11:22:37;101609.16;;;8.84;100.00
59513;BME280;45330;51.634;5.562;2023-11-21T11:28:19;101635.41;;;9.06;100.00
59513;BME280;45330;51.634;5.562;2023-11-21T11:31:02;101631.31;;;9.25;100.00
59513;BME280;45330;51.634;5.562;2023-11-21T11:36:49;101650.47;;;9.35;100.00
59513;BME280;45330;51.634;5.562;2023-11-21T11:39:29;101648.81;;;9.40;100.00
59513;BME280;45330;51.634;5.562;2023-11-21T11:41:58;101650.50;;;9.39;100.00
59513;BME280;45330;51.634;5.562;2023-11-21T11:44:50;101664.28;;;9.32;100.00
59513;BME280;45330;51.634;5.562;2023-11-21T11:47:22;101668.56;;;9.25;100.00
59513;BME280;45330;51.634;5.562;2023-11-21T11:52:57;101669.22;;;9.12;100.00
59513;BME280;45330;51.634;5.562;2023-11-21T11:55:37;101658.63;;;8.95;100.00
59513;BME280;45330;51.634;5.562;2023-11-21T11:58:05;101682.94;;;9.02;100.00
59513;BME280;45330;51.634;5.562;2023-11-21T12:00:35;101659.34;;;8.83;100.00
59513;BME280;45330;51.634;5.562;2023-11-21T12:03:06;101673.13;;;8.79;100.00
59513;BME280;45330;51.634;5.562;2023-11-21T12:05:33;101684.47;;;8.87;100.00
59513;BME280;45330;51.634;5.562;2023-11-21T12:08:05;101668.66;;;8.72;100.00
59513;BME280;45330;51.634;5.562;2023-11-21T12:10:36;101696.50;;;8.82;100.00
59513;BME280;45330;51.634;5.562;2023-11-21T12:13:11;101699.88;;;8.77;100.00
59513;BME280;45330;51.634;5.562;2023-11-21T12:15:40;101682.38;;;8.65;100.00
59513;BME280;45330;51.634;5.562;2023-11-21T12:18:06;101683.25;;;8.64;100.00
59513;BME280;45330;51.634;5.562;2023-11-21T12:20:33;101698.94;;;8.71;100.00
59513;BME280;45330;51.634;5.562;2023-11-21T12:23:04;101700.78;;;8.79;100.00
59513;BME280;45330;51.634;5.562;2023-11-21T12:25:31;101705.13;;;8.80;100.00
59513;BME280;45330;51.634;5.562;2023-11-21T12:28:01;101683.25;;;8.64;100.00
59513;BME280;45330;51.634;5.562;2023-11-21T12:30:29;101708.56;;;8.79;100.00
59513;BME280;45330;51.634;5.562;2023-11-21T12:33:00;101722.34;;;8.76;100.00
59513;BME280;45330;51.634;5.562;2023-11-21T12:35:32;101725.81;;;8.75;100.00
59513;BME280;45330;51.634;5.562;2023-11-21T12:38:01;101731.03;;;8.77;100.00
59513;BME280;45330;51.634;5.562;2023-11-21T12:40:30;101733.59;;;8.75;100.00
59513;BME280;45330;51.634;5.562;2023-11-21T12:42:57;101712.66;;;8.63;100.00
59513;BME280;45330;51.634;5.562;2023-11-21T12:45:27;101711.81;;;8.64;100.00
59513;BME280;45330;51.634;5.562;2023-11-21T12:48:01;101735.38;;;8.78;100.00
59513;BME280;45330;51.634;5.562;2023-11-21T12:50:32;101734.41;;;8.72;100.00
59513;BME280;45330;51.634;5.562;2023-11-21T12:53:00;101718.66;;;8.60;100.00
59513;BME280;45330;51.634;5.562;2023-11-21T12:55:30;101731.78;;;8.69;100.00
59513;BME280;45330;51.634;5.562;2023-11-21T12:57:55;101732.63;;;8.68;100.00